sensor_id;sensor_type;location;lat;lon;timestamp;temperature;humidity
40289;DHT22;28991;52.028;5.526;2023-04-03T00:01:14;17.70;45.80
40289;DHT22;28991;52.028;5.526;2023-04-03T00:03:40;17.80;45.90
40289;DHT22;28991;52.028;5.526;2023-04-03T00:06:07;18.00;46.00
40289;DHT22;28991;52.028;5.526;2023-04-03T00:08:34;17.80;45.90
40289;DHT22;28991;52.028;5.526;2023-04-03T00:11:00;18.50;46.30
40289;DHT22;28991;52.028;5.526;2023-04-03T00:13:25;18.30;46.20
40289;DHT22;28991;52.028;5.526;2023-04-03T00:15:51;17.80;46.00
40289;DHT22;28991;52.028;5.526;2023-04-03T00:18:17;18.00;46.10
40289;DHT22;28991;52.028;5.526;2023-04-03T00:20:42;17.80;45.50
40289;DHT22;28991;52.028;5.526;2023-04-03T00:23:08;17.80;46.00
40289;DHT22;28991;52.028;5.526;2023-04-03T00:25:33;17.80;46.00
40289;DHT22;28991;52.028;5.526;2023-04-03T00:27:59;17.70;46.00
40289;DHT22;28991;52.028;5.526;2023-04-03T00:30:25;17.70;46.00
40289;DHT22;28991;52.028;5.526;2023-04-03T00:32:51;17.70;46.00
40289;DHT22;28991;52.028;5.526;2023-04-03T00:35:17;17.70;46.00
40289;DHT22;28991;52.028;5.526;2023-04-03T00:37:43;17.50;45.80
40289;DHT22;28991;52.028;5.526;2023-04-03T00:40:09;17.80;46.00
40289;DHT22;28991;52.028;5.526;2023-04-03T00:42:42;17.70;46.00
40289;DHT22;28991;52.028;5.526;2023-04-03T00:47:36;17.80;46.10
40289;DHT22;28991;52.028;5.526;2023-04-03T00:50:03;18.60;46.50
40289;DHT22;28991;52.028;5.526;2023-04-03T00:52:29;17.70;46.00
40289;DHT22;28991;52.028;5.526;2023-04-03T00:54:56;17.70;46.00
40289;DHT22;28991;52.028;5.526;2023-04-03T00:57:23;17.70;46.00
40289;DHT22;28991;52.028;5.526;2023-04-03T00:59:49;17.70;46.00
40289;DHT22;28991;52.028;5.526;2023-04-03T01:02:17;17.60;46.00
40289;DHT22;28991;52.028;5.526;2023-04-03T01:04:43;17.60;46.00
40289;DHT22;28991;52.028;5.526;2023-04-03T01:09:41;17.80;46.10
40289;DHT22;28991;52.028;5.526;2023-04-03T01:12:13;17.70;46.10
40289;DHT22;28991;52.028;5.526;2023-04-03T01:14:41;17.70;46.10
40289;DHT22;28991;52.028;5.526;2023-04-03T01:19:52;17.70;46.10
40289;DHT22;28991;52.028;5.526;2023-04-03T01:22:24;17.70;46.10
40289;DHT22;28991;52.028;5.526;2023-04-03T01:24:51;17.70;46.10
40289;DHT22;28991;52.028;5.526;2023-04-03T01:27:18;17.70;46.10
40289;DHT22;28991;52.028;5.526;2023-04-03T01:29:43;17.50;46.10
40289;DHT22;28991;52.028;5.526;2023-04-03T01:32:09;17.50;46.10
40289;DHT22;28991;52.028;5.526;2023-04-03T01:34:35;17.70;46.20
40289;DHT22;28991;52.028;5.526;2023-04-03T01:37:00;17.70;46.20
40289;DHT22;28991;52.028;5.526;2023-04-03T01:39:26;17.70;46.20
40289;DHT22;28991;52.028;5.526;2023-04-03T01:41:52;17.70;46.20
40289;DHT22;28991;52.028;5.526;2023-04-03T01:44:17;17.70;46.20
40289;DHT22;28991;52.028;5.526;2023-04-03T01:46:43;17.70;46.20
40289;DHT22;28991;52.028;5.526;2023-04-03T01:49:08;17.70;46.20
40289;DHT22;28991;52.028;5.526;2023-04-03T01:51:34;17.10;45.90
40289;DHT22;28991;52.028;5.526;2023-04-03T01:53:59;18.20;46.50
40289;DHT22;28991;52.028;5.526;2023-04-03T01:56:25;19.50;47.20
40289;DHT22;28991;52.028;5.526;2023-04-03T01:58:50;17.70;46.20
40289;DHT22;28991;52.028;5.526;2023-04-03T02:01:16;17.70;46.20
40289;DHT22;28991;52.028;5.526;2023-04-03T02:03:42;16.50;45.60
40289;DHT22;28991;52.028;5.526;2023-04-03T02:06:07;17.60;46.20
40289;DHT22;28991;52.028;5.526;2023-04-03T02:08:33;17.40;46.10
40289;DHT22;28991;52.028;5.526;2023-04-03T02:10:58;17.60;46.20
40289;DHT22;28991;52.028;5.526;2023-04-03T02:13:23;17.70;46.20
40289;DHT22;28991;52.028;5.526;2023-04-03T02:15:49;17.70;46.30
40289;DHT22;28991;52.028;5.526;2023-04-03T02:18:14;17.60;46.20
40289;DHT22;28991;52.028;5.526;2023-04-03T02:20:40;17.60;46.20
40289;DHT22;28991;52.028;5.526;2023-04-03T02:23:05;17.40;46.10
40289;DHT22;28991;52.028;5.526;2023-04-03T02:25:31;17.40;46.10
40289;DHT22;28991;52.028;5.526;2023-04-03T02:27:57;17.70;46.30
40289;DHT22;28991;52.028;5.526;2023-04-03T02:30:23;17.50;46.20
40289;DHT22;28991;52.028;5.526;2023-04-03T02:32:48;17.70;46.30
40289;DHT22;28991;52.028;5.526;2023-04-03T02:35:14;17.70;46.30
40289;DHT22;28991;52.028;5.526;2023-04-03T02:37:39;17.60;46.30
40289;DHT22;28991;52.028;5.526;2023-04-03T02:40:06;17.60;46.30
40289;DHT22;28991;52.028;5.526;2023-04-03T02:42:31;18.00;46.50
40289;DHT22;28991;52.028;5.526;2023-04-03T02:44:57;17.60;46.30
40289;DHT22;28991;52.028;5.526;2023-04-03T02:47:22;17.80;46.40
40289;DHT22;28991;52.028;5.526;2023-04-03T02:49:48;17.70;46.30
40289;DHT22;28991;52.028;5.526;2023-04-03T02:52:13;17.70;46.40
40289;DHT22;28991;52.028;5.526;2023-04-03T02:54:39;17.70;46.40
40289;DHT22;28991;52.028;5.526;2023-04-03T02:57:05;18.50;46.80
40289;DHT22;28991;52.028;5.526;2023-04-03T02:59:33;17.50;46.30
40289;DHT22;28991;52.028;5.526;2023-04-03T03:01:58;17.70;46.40
40289;DHT22;28991;52.028;5.526;2023-04-03T03:04:24;17.60;46.30
40289;DHT22;28991;52.028;5.526;2023-04-03T03:06:49;17.80;46.40
40289;DHT22;28991;52.028;5.526;2023-04-03T03:09:16;17.60;46.40
40289;DHT22;28991;52.028;5.526;2023-04-03T03:11:41;17.40;46.30
40289;DHT22;28991;52.028;5.526;2023-04-03T03:14:07;18.30;46.80
40289;DHT22;28991;52.028;5.526;2023-04-03T03:16:32;17.60;46.40
40289;DHT22;28991;52.028;5.526;2023-04-03T03:18:58;17.80;46.50
40289;DHT22;28991;52.028;5.526;2023-04-03T03:21:23;17.60;46.40
40289;DHT22;28991;52.028;5.526;2023-04-03T03:23:49;17.90;46.60
40289;DHT22;28991;52.028;5.526;2023-04-03T03:26:14;17.60;46.40
40289;DHT22;28991;52.028;5.526;2023-04-03T03:28:40;17.70;46.40
40289;DHT22;28991;52.028;5.526;2023-04-03T03:31:06;17.90;46.60
40289;DHT22;28991;52.028;5.526;2023-04-03T03:33:31;17.60;46.40
40289;DHT22;28991;52.028;5.526;2023-04-03T03:35:57;17.50;46.40
40289;DHT22;28991;52.028;5.526;2023-04-03T03:38:23;17.70;46.50
40289;DHT22;28991;52.028;5.526;2023-04-03T03:40:49;17.60;46.40
40289;DHT22;28991;52.028;5.526;2023-04-03T03:43:15;17.90;46.60
40289;DHT22;28991;52.028;5.526;2023-04-03T03:45:40;17.60;46.40
40289;DHT22;28991;52.028;5.526;2023-04-03T03:48:06;17.30;46.30
40289;DHT22;28991;52.028;5.526;2023-04-03T03:50:31;17.20;46.20
40289;DHT22;28991;52.028;5.526;2023-04-03T03:52:57;17.70;46.50
40289;DHT22;28991;52.028;5.526;2023-04-03T03:55:22;19.00;47.20
40289;DHT22;28991;52.028;5.526;2023-04-03T03:57:48;19.00;47.20
40289;DHT22;28991;52.028;5.526;2023-04-03T04:00:13;18.70;47.00
40289;DHT22;28991;52.028;5.526;2023-04-03T04:02:39;17.60;46.40
40289;DHT22;28991;52.028;5.526;2023-04-03T04:05:05;17.50;46.40
40289;DHT22;28991;52.028;5.526;2023-04-03T04:07:31;17.70;46.50
40289;DHT22;28991;52.028;5.526;2023-04-03T04:09:56;18.30;46.80
40289;DHT22;28991;52.028;5.526;2023-04-03T04:12:22;17.50;46.40
40289;DHT22;28991;52.028;5.526;2023-04-03T04:14:47;17.50;46.40
40289;DHT22;28991;52.028;5.526;2023-04-03T04:17:13;17.40;46.40
40289;DHT22;28991;52.028;5.526;2023-04-03T04:19:39;17.60;46.50
40289;DHT22;28991;52.028;5.526;2023-04-03T04:22:04;18.20;46.80
40289;DHT22;28991;52.028;5.526;2023-04-03T04:24:30;17.60;46.50
40289;DHT22;28991;52.028;5.526;2023-04-03T04:26:55;17.50;46.40
40289;DHT22;28991;52.028;5.526;2023-04-03T04:29:21;17.50;46.40
40289;DHT22;28991;52.028;5.526;2023-04-03T04:31:46;17.00;46.20
40289;DHT22;28991;52.028;5.526;2023-04-03T04:34:12;17.50;46.40
40289;DHT22;28991;52.028;5.526;2023-04-03T04:36:38;17.60;46.50
40289;DHT22;28991;52.028;5.526;2023-04-03T04:39:04;17.60;46.50
40289;DHT22;28991;52.028;5.526;2023-04-03T04:41:30;17.50;46.50
40289;DHT22;28991;52.028;5.526;2023-04-03T04:43:56;17.50;46.50
40289;DHT22;28991;52.028;5.526;2023-04-03T04:46:21;18.00;46.70
40289;DHT22;28991;52.028;5.526;2023-04-03T04:48:47;17.60;46.50
40289;DHT22;28991;52.028;5.526;2023-04-03T04:51:13;17.60;46.60
40289;DHT22;28991;52.028;5.526;2023-04-03T04:53:39;17.50;46.50
40289;DHT22;28991;52.028;5.526;2023-04-03T04:56:04;17.50;46.50
40289;DHT22;28991;52.028;5.526;2023-04-03T04:58:30;18.10;46.80
40289;DHT22;28991;52.028;5.526;2023-04-03T05:00:59;17.40;46.50
40289;DHT22;28991;52.028;5.526;2023-04-03T05:03:25;17.50;46.60
40289;DHT22;28991;52.028;5.526;2023-04-03T05:05:50;17.50;46.80
40289;DHT22;28991;52.028;5.526;2023-04-03T05:08:16;17.60;47.00
40289;DHT22;28991;52.028;5.526;2023-04-03T05:10:41;17.60;45.60
40289;DHT22;28991;52.028;5.526;2023-04-03T05:13:07;17.60;43.40
40289;DHT22;28991;52.028;5.526;2023-04-03T05:15:33;17.70;43.00
40289;DHT22;28991;52.028;5.526;2023-04-03T05:17:58;17.80;41.50
40289;DHT22;28991;52.028;5.526;2023-04-03T05:20:24;17.90;41.50
40289;DHT22;28991;52.028;5.526;2023-04-03T05:22:50;17.90;42.20
40289;DHT22;28991;52.028;5.526;2023-04-03T05:25:16;17.80;42.00
40289;DHT22;28991;52.028;5.526;2023-04-03T05:27:41;18.00;41.40
40289;DHT22;28991;52.028;5.526;2023-04-03T05:30:07;18.00;40.70
40289;DHT22;28991;52.028;5.526;2023-04-03T05:32:32;18.10;41.30
40289;DHT22;28991;52.028;5.526;2023-04-03T05:34:58;18.50;40.70
40289;DHT22;28991;52.028;5.526;2023-04-03T05:37:24;18.20;41.10
40289;DHT22;28991;52.028;5.526;2023-04-03T05:39:49;18.20;39.90
40289;DHT22;28991;52.028;5.526;2023-04-03T05:42:15;18.30;40.80
40289;DHT22;28991;52.028;5.526;2023-04-03T05:44:41;18.60;41.10
40289;DHT22;28991;52.028;5.526;2023-04-03T05:47:07;18.40;41.00
40289;DHT22;28991;52.028;5.526;2023-04-03T05:49:32;18.50;40.90
40289;DHT22;28991;52.028;5.526;2023-04-03T05:51:58;18.60;40.80
40289;DHT22;28991;52.028;5.526;2023-04-03T05:54:24;18.50;40.90
40289;DHT22;28991;52.028;5.526;2023-04-03T05:56:50;18.50;40.80
40289;DHT22;28991;52.028;5.526;2023-04-03T05:59:16;18.50;41.00
40289;DHT22;28991;52.028;5.526;2023-04-03T06:01:42;18.90;41.30
40289;DHT22;28991;52.028;5.526;2023-04-03T06:04:08;18.80;41.20
40289;DHT22;28991;52.028;5.526;2023-04-03T06:06:53;18.60;40.60
40289;DHT22;28991;52.028;5.526;2023-04-03T06:09:20;18.50;39.90
40289;DHT22;28991;52.028;5.526;2023-04-03T06:11:46;18.80;40.80
40289;DHT22;28991;52.028;5.526;2023-04-03T06:14:12;19.20;40.90
40289;DHT22;28991;52.028;5.526;2023-04-03T06:16:37;18.80;40.40
40289;DHT22;28991;52.028;5.526;2023-04-03T06:19:03;18.80;40.00
40289;DHT22;28991;52.028;5.526;2023-04-03T06:21:29;19.00;39.60
40289;DHT22;28991;52.028;5.526;2023-04-03T06:23:55;19.00;39.10
40289;DHT22;28991;52.028;5.526;2023-04-03T06:26:21;19.30;38.90
40289;DHT22;28991;52.028;5.526;2023-04-03T06:28:47;19.50;38.50
40289;DHT22;28991;52.028;5.526;2023-04-03T06:31:12;19.60;38.10
40289;DHT22;28991;52.028;5.526;2023-04-03T06:33:38;19.60;37.70
40289;DHT22;28991;52.028;5.526;2023-04-03T06:36:04;19.80;37.30
40289;DHT22;28991;52.028;5.526;2023-04-03T06:38:30;19.90;37.20
40289;DHT22;28991;52.028;5.526;2023-04-03T06:40:55;20.00;36.80
40289;DHT22;28991;52.028;5.526;2023-04-03T06:43:21;20.10;36.40
40289;DHT22;28991;52.028;5.526;2023-04-03T06:45:46;20.20;36.20
40289;DHT22;28991;52.028;5.526;2023-04-03T06:48:12;20.10;35.80
40289;DHT22;28991;52.028;5.526;2023-04-03T06:50:38;21.20;36.00
40289;DHT22;28991;52.028;5.526;2023-04-03T06:53:03;20.50;35.30
40289;DHT22;28991;52.028;5.526;2023-04-03T06:55:29;20.50;34.90
40289;DHT22;28991;52.028;5.526;2023-04-03T06:57:55;20.60;34.70
40289;DHT22;28991;52.028;5.526;2023-04-03T07:00:20;20.70;34.60
40289;DHT22;28991;52.028;5.526;2023-04-03T07:02:46;20.70;34.20
40289;DHT22;28991;52.028;5.526;2023-04-03T07:05:12;20.90;34.30
40289;DHT22;28991;52.028;5.526;2023-04-03T07:07:38;20.80;33.80
40289;DHT22;28991;52.028;5.526;2023-04-03T07:10:04;20.80;33.80
40289;DHT22;28991;52.028;5.526;2023-04-03T07:12:30;20.90;33.60
40289;DHT22;28991;52.028;5.526;2023-04-03T07:15:40;20.90;32.80
40289;DHT22;28991;52.028;5.526;2023-04-03T07:18:05;21.00;33.40
40289;DHT22;28991;52.028;5.526;2023-04-03T07:20:31;21.10;33.20
40289;DHT22;28991;52.028;5.526;2023-04-03T07:22:56;21.10;33.10
40289;DHT22;28991;52.028;5.526;2023-04-03T07:25:22;21.30;32.80
40289;DHT22;28991;52.028;5.526;2023-04-03T07:27:47;21.30;32.60
40289;DHT22;28991;52.028;5.526;2023-04-03T07:30:14;21.30;32.30
40289;DHT22;28991;52.028;5.526;2023-04-03T07:32:40;21.50;32.20
40289;DHT22;28991;52.028;5.526;2023-04-03T07:35:05;21.50;32.20
40289;DHT22;28991;52.028;5.526;2023-04-03T07:40:00;21.50;31.80
40289;DHT22;28991;52.028;5.526;2023-04-03T07:42:28;21.40;31.00
40289;DHT22;28991;52.028;5.526;2023-04-03T07:44:54;21.30;31.20
40289;DHT22;28991;52.028;5.526;2023-04-03T07:47:19;21.10;30.80
40289;DHT22;28991;52.028;5.526;2023-04-03T07:49:46;21.00;30.60
40289;DHT22;28991;52.028;5.526;2023-04-03T07:52:12;21.00;30.60
40289;DHT22;28991;52.028;5.526;2023-04-03T07:54:38;21.00;30.70
40289;DHT22;28991;52.028;5.526;2023-04-03T07:57:03;21.00;30.40
40289;DHT22;28991;52.028;5.526;2023-04-03T07:59:30;21.20;30.70
40289;DHT22;28991;52.028;5.526;2023-04-03T08:01:55;21.00;30.40
40289;DHT22;28991;52.028;5.526;2023-04-03T08:04:21;21.00;30.70
40289;DHT22;28991;52.028;5.526;2023-04-03T08:06:46;21.40;30.70
40289;DHT22;28991;52.028;5.526;2023-04-03T08:09:12;21.00;30.50
40289;DHT22;28991;52.028;5.526;2023-04-03T08:11:39;21.60;30.90
40289;DHT22;28991;52.028;5.526;2023-04-03T08:14:05;20.80;30.00
40289;DHT22;28991;52.028;5.526;2023-04-03T08:16:30;21.00;29.90
40289;DHT22;28991;52.028;5.526;2023-04-03T08:18:56;21.20;30.60
40289;DHT22;28991;52.028;5.526;2023-04-03T08:21:21;21.00;29.70
40289;DHT22;28991;52.028;5.526;2023-04-03T08:23:48;19.00;27.40
40289;DHT22;28991;52.028;5.526;2023-04-03T08:26:15;20.80;27.90
40289;DHT22;28991;52.028;5.526;2023-04-03T08:28:41;20.60;27.90
40289;DHT22;28991;52.028;5.526;2023-04-03T08:31:09;20.50;28.20
40289;DHT22;28991;52.028;5.526;2023-04-03T08:33:36;20.40;28.00
40289;DHT22;28991;52.028;5.526;2023-04-03T08:36:03;20.30;28.20
40289;DHT22;28991;52.028;5.526;2023-04-03T08:38:29;20.20;28.30
40289;DHT22;28991;52.028;5.526;2023-04-03T08:41:02;20.10;28.20
40289;DHT22;28991;52.028;5.526;2023-04-03T08:50:41;20.00;28.70
40289;DHT22;28991;52.028;5.526;2023-04-03T08:53:12;20.10;29.20
40289;DHT22;28991;52.028;5.526;2023-04-03T08:55:43;20.20;29.50
40289;DHT22;28991;52.028;5.526;2023-04-03T08:58:11;20.30;29.10
40289;DHT22;28991;52.028;5.526;2023-04-03T09:00:59;20.40;28.80
40289;DHT22;28991;52.028;5.526;2023-04-03T09:03:23;20.50;29.20
40289;DHT22;28991;52.028;5.526;2023-04-03T09:05:56;20.70;29.30
40289;DHT22;28991;52.028;5.526;2023-04-03T09:10:48;20.80;29.10
40289;DHT22;28991;52.028;5.526;2023-04-03T09:13:34;20.80;28.90
40289;DHT22;28991;52.028;5.526;2023-04-03T09:16:05;20.90;28.10
40289;DHT22;28991;52.028;5.526;2023-04-03T09:18:39;20.90;28.60
40289;DHT22;28991;52.028;5.526;2023-04-03T09:21:27;20.90;27.50
40289;DHT22;28991;52.028;5.526;2023-04-03T09:23:55;21.00;28.30
40289;DHT22;28991;52.028;5.526;2023-04-03T09:26:24;21.00;28.30
40289;DHT22;28991;52.028;5.526;2023-04-03T09:28:52;21.00;28.20
40289;DHT22;28991;52.028;5.526;2023-04-03T09:31:20;21.00;28.60
40289;DHT22;28991;52.028;5.526;2023-04-03T09:33:50;21.10;28.00
40289;DHT22;28991;52.028;5.526;2023-04-03T09:39:05;21.00;27.70
40289;DHT22;28991;52.028;5.526;2023-04-03T09:41:31;21.00;27.10
40289;DHT22;28991;52.028;5.526;2023-04-03T09:43:58;20.90;26.10
40289;DHT22;28991;52.028;5.526;2023-04-03T09:46:30;20.80;25.50
40289;DHT22;28991;52.028;5.526;2023-04-03T09:48:57;20.70;26.20
40289;DHT22;28991;52.028;5.526;2023-04-03T09:51:29;20.70;26.60
40289;DHT22;28991;52.028;5.526;2023-04-03T09:53:56;20.70;25.60
40289;DHT22;28991;52.028;5.526;2023-04-03T09:56:23;20.80;25.20
40289;DHT22;28991;52.028;5.526;2023-04-03T09:58:50;20.70;24.70
40289;DHT22;28991;52.028;5.526;2023-04-03T10:03:47;20.90;25.10
40289;DHT22;28991;52.028;5.526;2023-04-03T10:06:29;20.90;25.20
40289;DHT22;28991;52.028;5.526;2023-04-03T10:08:59;20.90;25.20
40289;DHT22;28991;52.028;5.526;2023-04-03T10:11:26;20.90;24.80
40289;DHT22;28991;52.028;5.526;2023-04-03T10:13:59;20.90;25.30
40289;DHT22;28991;52.028;5.526;2023-04-03T10:16:32;20.90;25.20
40289;DHT22;28991;52.028;5.526;2023-04-03T10:24:36;20.80;24.50
40289;DHT22;28991;52.028;5.526;2023-04-03T10:27:10;20.80;24.10
40289;DHT22;28991;52.028;5.526;2023-04-03T10:29:38;20.80;24.00
40289;DHT22;28991;52.028;5.526;2023-04-03T10:32:21;20.80;24.40
40289;DHT22;28991;52.028;5.526;2023-04-03T10:34:48;20.80;24.50
40289;DHT22;28991;52.028;5.526;2023-04-03T10:47:20;20.90;23.90
40289;DHT22;28991;52.028;5.526;2023-04-03T10:55:01;21.00;23.50
40289;DHT22;28991;52.028;5.526;2023-04-03T10:57:29;20.90;23.60
40289;DHT22;28991;52.028;5.526;2023-04-03T10:59:56;20.90;23.30
40289;DHT22;28991;52.028;5.526;2023-04-03T11:02:25;20.90;23.40
40289;DHT22;28991;52.028;5.526;2023-04-03T11:04:53;20.90;23.80
40289;DHT22;28991;52.028;5.526;2023-04-03T11:07:21;20.80;23.80
40289;DHT22;28991;52.028;5.526;2023-04-03T11:09:50;20.90;23.70
40289;DHT22;28991;52.028;5.526;2023-04-03T11:14:42;21.00;23.70
40289;DHT22;28991;52.028;5.526;2023-04-03T11:22:25;21.10;23.60
40289;DHT22;28991;52.028;5.526;2023-04-03T11:24:57;21.00;23.50
40289;DHT22;28991;52.028;5.526;2023-04-03T11:27:24;21.00;23.50
40289;DHT22;28991;52.028;5.526;2023-04-03T11:29:50;21.00;23.20
40289;DHT22;28991;52.028;5.526;2023-04-03T11:32:29;21.00;23.90
40289;DHT22;28991;52.028;5.526;2023-04-03T11:34:57;21.00;23.60
40289;DHT22;28991;52.028;5.526;2023-04-03T11:37:28;21.00;23.40
40289;DHT22;28991;52.028;5.526;2023-04-03T11:39:56;21.10;23.50
40289;DHT22;28991;52.028;5.526;2023-04-03T11:42:24;21.00;23.10
40289;DHT22;28991;52.028;5.526;2023-04-03T11:44:51;21.20;23.50
40289;DHT22;28991;52.028;5.526;2023-04-03T11:47:44;21.50;23.80
40289;DHT22;28991;52.028;5.526;2023-04-03T11:52:58;20.90;23.60
40289;DHT22;28991;52.028;5.526;2023-04-03T12:08:27;20.80;23.80
40289;DHT22;28991;52.028;5.526;2023-04-03T12:21:13;20.70;24.00
40289;DHT22;28991;52.028;5.526;2023-04-03T12:26:24;20.70;23.90
40289;DHT22;28991;52.028;5.526;2023-04-03T12:28:51;20.60;23.90
40289;DHT22;28991;52.028;5.526;2023-04-03T12:31:18;20.70;24.20
40289;DHT22;28991;52.028;5.526;2023-04-03T12:33:56;20.90;24.40
40289;DHT22;28991;52.028;5.526;2023-04-03T12:42:18;20.50;24.60
40289;DHT22;28991;52.028;5.526;2023-04-03T12:44:54;20.50;24.90
40289;DHT22;28991;52.028;5.526;2023-04-03T12:47:34;20.50;25.00
40289;DHT22;28991;52.028;5.526;2023-04-03T12:50:16;20.50;24.60
40289;DHT22;28991;52.028;5.526;2023-04-03T12:52:44;20.50;25.60
40289;DHT22;28991;52.028;5.526;2023-04-03T12:55:17;20.50;25.10
40289;DHT22;28991;52.028;5.526;2023-04-03T12:57:43;20.50;25.10
40289;DHT22;28991;52.028;5.526;2023-04-03T13:02:53;20.50;25.50
40289;DHT22;28991;52.028;5.526;2023-04-03T13:05:19;20.60;25.80
40289;DHT22;28991;52.028;5.526;2023-04-03T13:07:50;20.50;25.20
40289;DHT22;28991;52.028;5.526;2023-04-03T13:10:18;20.60;25.50
40289;DHT22;28991;52.028;5.526;2023-04-03T13:12:53;20.60;25.10
40289;DHT22;28991;52.028;5.526;2023-04-03T13:15:39;20.60;25.00
40289;DHT22;28991;52.028;5.526;2023-04-03T13:18:05;20.60;25.10
40289;DHT22;28991;52.028;5.526;2023-04-03T13:20:34;20.60;24.80
40289;DHT22;28991;52.028;5.526;2023-04-03T13:25:28;20.60;26.00
40289;DHT22;28991;52.028;5.526;2023-04-03T13:27:55;20.70;25.00
40289;DHT22;28991;52.028;5.526;2023-04-03T13:30:25;20.60;24.90
40289;DHT22;28991;52.028;5.526;2023-04-03T13:32:51;20.60;25.00
40289;DHT22;28991;52.028;5.526;2023-04-03T13:37:56;20.60;24.80
40289;DHT22;28991;52.028;5.526;2023-04-03T13:40:22;20.60;24.60
40289;DHT22;28991;52.028;5.526;2023-04-03T13:42:48;20.60;24.40
40289;DHT22;28991;52.028;5.526;2023-04-03T13:45:30;20.50;24.10
40289;DHT22;28991;52.028;5.526;2023-04-03T13:48:16;20.50;24.20
40289;DHT22;28991;52.028;5.526;2023-04-03T13:53:23;20.40;24.10
40289;DHT22;28991;52.028;5.526;2023-04-03T13:55:59;20.30;24.40
40289;DHT22;28991;52.028;5.526;2023-04-03T13:58:26;20.30;24.10
40289;DHT22;28991;52.028;5.526;2023-04-03T14:00:59;20.30;24.10
40289;DHT22;28991;52.028;5.526;2023-04-03T14:03:28;20.30;23.90
40289;DHT22;28991;52.028;5.526;2023-04-03T14:05:54;20.30;23.90
40289;DHT22;28991;52.028;5.526;2023-04-03T14:08:19;20.20;24.10
40289;DHT22;28991;52.028;5.526;2023-04-03T14:10:45;20.20;23.90
40289;DHT22;28991;52.028;5.526;2023-04-03T14:13:13;20.20;24.10
40289;DHT22;28991;52.028;5.526;2023-04-03T14:15:38;20.30;24.60
40289;DHT22;28991;52.028;5.526;2023-04-03T14:18:04;20.30;24.50
40289;DHT22;28991;52.028;5.526;2023-04-03T14:20:29;20.30;24.70
40289;DHT22;28991;52.028;5.526;2023-04-03T14:22:55;20.40;24.80
40289;DHT22;28991;52.028;5.526;2023-04-03T14:25:21;20.40;23.90
40289;DHT22;28991;52.028;5.526;2023-04-03T14:27:49;20.40;23.60
40289;DHT22;28991;52.028;5.526;2023-04-03T14:30:17;20.40;24.00
40289;DHT22;28991;52.028;5.526;2023-04-03T14:32:43;20.40;23.70
40289;DHT22;28991;52.028;5.526;2023-04-03T14:35:09;20.70;24.40
40289;DHT22;28991;52.028;5.526;2023-04-03T14:37:34;20.40;24.40
40289;DHT22;28991;52.028;5.526;2023-04-03T14:40:01;21.20;24.80
40289;DHT22;28991;52.028;5.526;2023-04-03T14:42:30;20.30;24.50
40289;DHT22;28991;52.028;5.526;2023-04-03T14:44:56;20.20;24.50
40289;DHT22;28991;52.028;5.526;2023-04-03T14:47:23;20.20;24.70
40289;DHT22;28991;52.028;5.526;2023-04-03T14:49:49;20.20;24.80
40289;DHT22;28991;52.028;5.526;2023-04-03T14:52:19;20.20;25.00
40289;DHT22;28991;52.028;5.526;2023-04-03T14:54:45;20.00;25.10
40289;DHT22;28991;52.028;5.526;2023-04-03T14:57:11;20.30;25.40
40289;DHT22;28991;52.028;5.526;2023-04-03T14:59:38;20.00;25.50
40289;DHT22;28991;52.028;5.526;2023-04-03T15:02:25;19.90;25.80
40289;DHT22;28991;52.028;5.526;2023-04-03T15:04:49;19.90;26.00
40289;DHT22;28991;52.028;5.526;2023-04-03T15:07:14;20.30;26.30
40289;DHT22;28991;52.028;5.526;2023-04-03T15:09:40;19.80;26.40
40289;DHT22;28991;52.028;5.526;2023-04-03T15:12:07;19.80;26.50
40289;DHT22;28991;52.028;5.526;2023-04-03T15:14:33;19.80;26.70
40289;DHT22;28991;52.028;5.526;2023-04-03T15:16:58;20.50;27.10
40289;DHT22;28991;52.028;5.526;2023-04-03T15:19:24;19.70;26.90
40289;DHT22;28991;52.028;5.526;2023-04-03T15:21:49;19.70;27.00
40289;DHT22;28991;52.028;5.526;2023-04-03T15:24:15;19.70;27.00
40289;DHT22;28991;52.028;5.526;2023-04-03T15:26:40;19.70;27.00
40289;DHT22;28991;52.028;5.526;2023-04-03T15:29:06;19.60;27.10
40289;DHT22;28991;52.028;5.526;2023-04-03T15:31:32;19.60;27.20
40289;DHT22;28991;52.028;5.526;2023-04-03T15:33:57;19.60;27.30
40289;DHT22;28991;52.028;5.526;2023-04-03T15:36:23;19.60;27.40
40289;DHT22;28991;52.028;5.526;2023-04-03T15:38:48;19.60;27.50
40289;DHT22;28991;52.028;5.526;2023-04-03T15:41:14;19.60;27.70
40289;DHT22;28991;52.028;5.526;2023-04-03T15:43:39;19.70;28.30
40289;DHT22;28991;52.028;5.526;2023-04-03T15:46:05;19.60;27.90
40289;DHT22;28991;52.028;5.526;2023-04-03T15:48:30;19.50;28.00
40289;DHT22;28991;52.028;5.526;2023-04-03T15:50:56;19.50;28.00
40289;DHT22;28991;52.028;5.526;2023-04-03T15:53:22;19.40;28.10
40289;DHT22;28991;52.028;5.526;2023-04-03T15:55:47;19.50;28.20
40289;DHT22;28991;52.028;5.526;2023-04-03T15:58:13;19.40;28.20
40289;DHT22;28991;52.028;5.526;2023-04-03T16:00:38;19.50;28.30
40289;DHT22;28991;52.028;5.526;2023-04-03T16:03:05;19.40;28.40
40289;DHT22;28991;52.028;5.526;2023-04-03T16:05:31;19.40;28.40
40289;DHT22;28991;52.028;5.526;2023-04-03T16:07:57;19.40;28.50
40289;DHT22;28991;52.028;5.526;2023-04-03T16:10:24;19.40;28.60
40289;DHT22;28991;52.028;5.526;2023-04-03T16:12:50;19.30;28.60
40289;DHT22;28991;52.028;5.526;2023-04-03T16:15:15;19.40;28.70
40289;DHT22;28991;52.028;5.526;2023-04-03T16:17:41;19.30;28.70
40289;DHT22;28991;52.028;5.526;2023-04-03T16:20:06;19.30;28.80
40289;DHT22;28991;52.028;5.526;2023-04-03T16:22:32;19.30;28.90
40289;DHT22;28991;52.028;5.526;2023-04-03T16:24:58;19.20;28.90
40289;DHT22;28991;52.028;5.526;2023-04-03T16:27:23;19.20;29.40
40289;DHT22;28991;52.028;5.526;2023-04-03T16:29:55;19.30;29.10
40289;DHT22;28991;52.028;5.526;2023-04-03T16:32:21;19.30;29.20
40289;DHT22;28991;52.028;5.526;2023-04-03T16:34:47;19.20;29.10
40289;DHT22;28991;52.028;5.526;2023-04-03T16:37:12;19.20;29.20
40289;DHT22;28991;52.028;5.526;2023-04-03T16:39:38;19.20;29.30
40289;DHT22;28991;52.028;5.526;2023-04-03T16:42:03;19.20;29.40
40289;DHT22;28991;52.028;5.526;2023-04-03T16:44:29;19.20;29.40
40289;DHT22;28991;52.028;5.526;2023-04-03T16:46:54;19.10;29.40
40289;DHT22;28991;52.028;5.526;2023-04-03T16:49:20;19.10;29.50
40289;DHT22;28991;52.028;5.526;2023-04-03T16:51:45;19.20;29.60
40289;DHT22;28991;52.028;5.526;2023-04-03T16:54:11;19.10;29.60
40289;DHT22;28991;52.028;5.526;2023-04-03T16:56:38;19.20;29.70
40289;DHT22;28991;52.028;5.526;2023-04-03T16:59:04;19.10;29.70
40289;DHT22;28991;52.028;5.526;2023-04-03T17:01:30;20.00;30.00
40289;DHT22;28991;52.028;5.526;2023-04-03T17:03:55;19.10;29.80
40289;DHT22;28991;52.028;5.526;2023-04-03T17:06:21;19.10;29.90
40289;DHT22;28991;52.028;5.526;2023-04-03T17:08:49;19.10;29.90